sensor_id;sensor_type;location;lat;lon;timestamp;pressure;altitude;pressure_sealevel;temperature;humidity
61394;BME280;48555;50.952;-0.120;2023-03-04T00:00:51;102463.13;;;7.21;60.66
61394;BME280;48555;50.952;-0.120;2023-03-04T00:03:17;102464.75;;;7.23;60.55
61394;BME280;48555;50.952;-0.120;2023-03-04T00:05:42;102466.25;;;7.32;60.27
61394;BME280;48555;50.952;-0.120;2023-03-04T00:08:07;102459.22;;;7.36;60.17
61394;BME280;48555;50.952;-0.120;2023-03-04T00:10:33;102462.56;;;7.39;60.18
61394;BME280;48555;50.952;-0.120;2023-03-04T00:12:58;102454.78;;;7.38;60.19
61394;BME280;48555;50.952;-0.120;2023-03-04T00:15:23;102455.13;;;7.27;60.21
61394;BME280;48555;50.952;-0.120;2023-03-04T00:17:49;102456.03;;;7.26;60.30
61394;BME280;48555;50.952;-0.120;2023-03-04T00:20:14;102448.03;;;7.04;60.43
61394;BME280;48555;50.952;-0.120;2023-03-04T00:22:40;102452.97;;;7.12;60.54
61394;BME280;48555;50.952;-0.120;2023-03-04T00:25:05;102454.25;;;6.98;60.51
61394;BME280;48555;50.952;-0.120;2023-03-04T00:27:31;102446.41;;;6.37;61.91
61394;BME280;48555;50.952;-0.120;2023-03-04T00:29:56;102448.00;;;6.43;61.67
61394;BME280;48555;50.952;-0.120;2023-03-04T00:32:21;102450.22;;;6.57;61.50
61394;BME280;48555;50.952;-0.120;2023-03-04T00:34:47;102444.97;;;6.58;60.98
61394;BME280;48555;50.952;-0.120;2023-03-04T00:37:12;102450.25;;;6.87;60.71
61394;BME280;48555;50.952;-0.120;2023-03-04T00:39:38;102442.56;;;6.82;60.41
61394;BME280;48555;50.952;-0.120;2023-03-04T00:42:03;102429.44;;;6.87;60.34
61394;BME280;48555;50.952;-0.120;2023-03-04T00:44:29;102439.38;;;6.72;60.39
61394;BME280;48555;50.952;-0.120;2023-03-04T00:46:55;102442.66;;;6.79;60.69
61394;BME280;48555;50.952;-0.120;2023-03-04T00:49:21;102441.69;;;6.83;60.57
61394;BME280;48555;50.952;-0.120;2023-03-04T00:51:46;102439.94;;;6.83;60.39
61394;BME280;48555;50.952;-0.120;2023-03-04T00:54:12;102449.03;;;6.69;61.08
61394;BME280;48555;50.952;-0.120;2023-03-04T00:56:37;102443.94;;;6.64;61.16
61394;BME280;48555;50.952;-0.120;2023-03-04T00:59:03;102456.38;;;6.86;60.87
61394;BME280;48555;50.952;-0.120;2023-03-04T01:01:28;102435.50;;;6.87;60.63
61394;BME280;48555;50.952;-0.120;2023-03-04T01:03:54;102454.25;;;6.67;61.18
61394;BME280;48555;50.952;-0.120;2023-03-04T01:06:19;102452.56;;;6.66;61.51
61394;BME280;48555;50.952;-0.120;2023-03-04T01:08:44;102462.63;;;6.78;61.20
61394;BME280;48555;50.952;-0.120;2023-03-04T01:11:10;102457.41;;;6.78;60.91
61394;BME280;48555;50.952;-0.120;2023-03-04T01:13:35;102455.34;;;6.91;60.54
61394;BME280;48555;50.952;-0.120;2023-03-04T01:16:01;102460.19;;;7.03;60.43
61394;BME280;48555;50.952;-0.120;2023-03-04T01:18:27;102459.47;;;6.97;60.88
61394;BME280;48555;50.952;-0.120;2023-03-04T01:20:53;102462.34;;;6.88;61.02
61394;BME280;48555;50.952;-0.120;2023-03-04T01:23:19;102458.91;;;6.87;61.11
61394;BME280;48555;50.952;-0.120;2023-03-04T01:25:44;102459.75;;;6.88;61.14
61394;BME280;48555;50.952;-0.120;2023-03-04T01:28:09;102456.19;;;6.92;61.08
61394;BME280;48555;50.952;-0.120;2023-03-04T01:30:35;102465.00;;;6.86;61.01
61394;BME280;48555;50.952;-0.120;2023-03-04T01:33:01;102457.38;;;6.80;61.60
61394;BME280;48555;50.952;-0.120;2023-03-04T01:35:26;102448.84;;;6.75;61.63
61394;BME280;48555;50.952;-0.120;2023-03-04T01:37:51;102457.47;;;6.77;61.85
61394;BME280;48555;50.952;-0.120;2023-03-04T01:40:17;102444.66;;;6.71;61.63
61394;BME280;48555;50.952;-0.120;2023-03-04T01:42:43;102462.69;;;6.77;61.92
61394;BME280;48555;50.952;-0.120;2023-03-04T01:45:15;102444.88;;;6.62;62.03
61394;BME280;48555;50.952;-0.120;2023-03-04T01:47:43;102453.56;;;6.62;62.13
61394;BME280;48555;50.952;-0.120;2023-03-04T01:50:34;102444.38;;;6.49;62.88
61394;BME280;48555;50.952;-0.120;2023-03-04T01:53:00;102456.78;;;6.70;62.44
61394;BME280;48555;50.952;-0.120;2023-03-04T01:55:27;102444.84;;;6.63;62.49
61394;BME280;48555;50.952;-0.120;2023-03-04T01:57:53;102422.81;;;6.45;62.17
61394;BME280;48555;50.952;-0.120;2023-03-04T02:02:45;102436.50;;;6.52;62.81
61394;BME280;48555;50.952;-0.120;2023-03-04T02:05:11;102433.53;;;6.66;62.49
61394;BME280;48555;50.952;-0.120;2023-03-04T02:07:37;102437.75;;;6.39;62.85
61394;BME280;48555;50.952;-0.120;2023-03-04T02:10:03;102435.94;;;6.41;63.34
61394;BME280;48555;50.952;-0.120;2023-03-04T02:12:28;102431.13;;;6.58;63.15
61394;BME280;48555;50.952;-0.120;2023-03-04T02:14:54;102431.50;;;6.75;62.39
61394;BME280;48555;50.952;-0.120;2023-03-04T02:17:26;102430.66;;;6.75;62.57
61394;BME280;48555;50.952;-0.120;2023-03-04T02:19:57;102423.16;;;6.64;62.87
61394;BME280;48555;50.952;-0.120;2023-03-04T02:22:25;102427.41;;;6.67;63.08
61394;BME280;48555;50.952;-0.120;2023-03-04T02:24:59;102426.22;;;6.78;62.84
61394;BME280;48555;50.952;-0.120;2023-03-04T02:27:27;102425.75;;;6.94;62.49
61394;BME280;48555;50.952;-0.120;2023-03-04T02:29:53;102415.53;;;6.88;62.57
61394;BME280;48555;50.952;-0.120;2023-03-04T02:32:18;102405.22;;;6.85;62.54
61394;BME280;48555;50.952;-0.120;2023-03-04T02:34:48;102406.91;;;6.87;62.28
61394;BME280;48555;50.952;-0.120;2023-03-04T02:37:15;102410.78;;;6.72;62.37
61394;BME280;48555;50.952;-0.120;2023-03-04T02:39:42;102410.59;;;6.80;62.53
61394;BME280;48555;50.952;-0.120;2023-03-04T02:42:09;102403.38;;;6.88;62.29
61394;BME280;48555;50.952;-0.120;2023-03-04T02:44:39;102400.72;;;6.91;61.98
61394;BME280;48555;50.952;-0.120;2023-03-04T02:47:07;102402.53;;;6.88;62.69
61394;BME280;48555;50.952;-0.120;2023-03-04T02:49:34;102403.34;;;6.90;62.60
61394;BME280;48555;50.952;-0.120;2023-03-04T02:54:26;102402.34;;;6.94;62.65
61394;BME280;48555;50.952;-0.120;2023-03-04T02:56:53;102404.50;;;6.50;63.82
61394;BME280;48555;50.952;-0.120;2023-03-04T02:59:20;102400.50;;;6.69;63.51
61394;BME280;48555;50.952;-0.120;2023-03-04T03:01:46;102396.41;;;6.60;63.59
61394;BME280;48555;50.952;-0.120;2023-03-04T03:04:11;102398.16;;;6.60;63.57
61394;BME280;48555;50.952;-0.120;2023-03-04T03:06:38;102395.56;;;6.60;63.62
61394;BME280;48555;50.952;-0.120;2023-03-04T03:09:03;102398.44;;;6.49;64.23
61394;BME280;48555;50.952;-0.120;2023-03-04T03:11:29;102402.78;;;6.50;63.89
61394;BME280;48555;50.952;-0.120;2023-03-04T03:13:54;102398.09;;;6.62;63.92
61394;BME280;48555;50.952;-0.120;2023-03-04T03:16:20;102387.25;;;6.16;65.30
61394;BME280;48555;50.952;-0.120;2023-03-04T03:18:45;102389.09;;;6.11;65.54
61394;BME280;48555;50.952;-0.120;2023-03-04T03:21:10;102382.94;;;6.15;65.82
61394;BME280;48555;50.952;-0.120;2023-03-04T03:23:36;102388.66;;;6.28;65.32
61394;BME280;48555;50.952;-0.120;2023-03-04T03:26:02;102386.31;;;6.50;65.00
61394;BME280;48555;50.952;-0.120;2023-03-04T03:28:27;102390.09;;;6.38;64.79
61394;BME280;48555;50.952;-0.120;2023-03-04T03:30:53;102390.91;;;6.40;64.93
61394;BME280;48555;50.952;-0.120;2023-03-04T03:33:18;102390.38;;;6.58;64.32
61394;BME280;48555;50.952;-0.120;2023-03-04T03:35:44;102386.56;;;6.72;64.31
61394;BME280;48555;50.952;-0.120;2023-03-04T03:38:09;102396.09;;;6.71;64.40
61394;BME280;48555;50.952;-0.120;2023-03-04T03:40:34;102389.91;;;6.75;64.26
61394;BME280;48555;50.952;-0.120;2023-03-04T03:43:00;102394.94;;;6.81;64.32
61394;BME280;48555;50.952;-0.120;2023-03-04T03:45:25;102397.72;;;6.75;64.30
61394;BME280;48555;50.952;-0.120;2023-03-04T03:47:51;102398.25;;;6.57;64.66
61394;BME280;48555;50.952;-0.120;2023-03-04T03:50:16;102394.09;;;6.19;65.85
61394;BME280;48555;50.952;-0.120;2023-03-04T03:52:41;102393.88;;;5.94;66.50
61394;BME280;48555;50.952;-0.120;2023-03-04T03:55:07;102389.28;;;6.05;66.73
61394;BME280;48555;50.952;-0.120;2023-03-04T03:57:33;102395.88;;;6.17;66.35
61394;BME280;48555;50.952;-0.120;2023-03-04T03:59:58;102392.09;;;6.28;66.02
61394;BME280;48555;50.952;-0.120;2023-03-04T04:02:23;102393.56;;;6.06;66.77
61394;BME280;48555;50.952;-0.120;2023-03-04T04:04:49;102397.47;;;6.22;66.61
61394;BME280;48555;50.952;-0.120;2023-03-04T04:07:14;102403.84;;;6.10;66.90
61394;BME280;48555;50.952;-0.120;2023-03-04T04:09:40;102398.97;;;6.31;66.16
61394;BME280;48555;50.952;-0.120;2023-03-04T04:12:06;102399.69;;;6.36;65.96
61394;BME280;48555;50.952;-0.120;2023-03-04T04:14:31;102401.88;;;6.50;65.50
61394;BME280;48555;50.952;-0.120;2023-03-04T04:16:57;102400.06;;;6.22;66.38
61394;BME280;48555;50.952;-0.120;2023-03-04T04:19:22;102404.38;;;6.54;65.65
61394;BME280;48555;50.952;-0.120;2023-03-04T04:21:47;102404.97;;;6.64;65.12
61394;BME280;48555;50.952;-0.120;2023-03-04T04:24:13;102406.31;;;6.46;65.42
61394;BME280;48555;50.952;-0.120;2023-03-04T04:26:39;102404.84;;;6.37;65.86
61394;BME280;48555;50.952;-0.120;2023-03-04T04:29:05;102404.13;;;6.64;65.24
61394;BME280;48555;50.952;-0.120;2023-03-04T04:31:30;102400.66;;;6.63;65.23
61394;BME280;48555;50.952;-0.120;2023-03-04T04:33:55;102401.41;;;6.68;65.12
61394;BME280;48555;50.952;-0.120;2023-03-04T04:36:21;102394.09;;;6.50;65.53
61394;BME280;48555;50.952;-0.120;2023-03-04T04:38:46;102403.81;;;6.43;65.58
61394;BME280;48555;50.952;-0.120;2023-03-04T04:41:21;102404.16;;;6.62;65.50
61394;BME280;48555;50.952;-0.120;2023-03-04T04:43:47;102389.38;;;6.64;64.81
61394;BME280;48555;50.952;-0.120;2023-03-04T04:46:13;102409.31;;;6.64;65.32
61394;BME280;48555;50.952;-0.120;2023-03-04T04:48:39;102406.50;;;6.71;64.92
61394;BME280;48555;50.952;-0.120;2023-03-04T04:51:05;102403.28;;;6.62;65.57
61394;BME280;48555;50.952;-0.120;2023-03-04T04:53:30;102399.47;;;6.44;66.11
61394;BME280;48555;50.952;-0.120;2023-03-04T04:55:55;102406.41;;;6.43;65.80
61394;BME280;48555;50.952;-0.120;2023-03-04T04:58:21;102402.13;;;6.42;65.82
61394;BME280;48555;50.952;-0.120;2023-03-04T05:00:46;102404.06;;;6.34;65.77
61394;BME280;48555;50.952;-0.120;2023-03-04T05:03:12;102403.09;;;6.38;65.96
61394;BME280;48555;50.952;-0.120;2023-03-04T05:05:37;102397.22;;;6.31;65.90
61394;BME280;48555;50.952;-0.120;2023-03-04T05:08:03;102402.16;;;6.08;66.62
61394;BME280;48555;50.952;-0.120;2023-03-04T05:10:28;102401.41;;;6.04;66.77
61394;BME280;48555;50.952;-0.120;2023-03-04T05:12:53;102413.25;;;6.14;66.63
61394;BME280;48555;50.952;-0.120;2023-03-04T05:15:19;102409.78;;;6.16;66.38
61394;BME280;48555;50.952;-0.120;2023-03-04T05:17:44;102409.19;;;6.37;65.62
61394;BME280;48555;50.952;-0.120;2023-03-04T05:20:10;102405.66;;;6.07;66.69
61394;BME280;48555;50.952;-0.120;2023-03-04T05:22:35;102413.91;;;6.23;66.72
61394;BME280;48555;50.952;-0.120;2023-03-04T05:25:01;102416.00;;;6.08;66.94
61394;BME280;48555;50.952;-0.120;2023-03-04T05:27:26;102410.41;;;5.89;68.09
61394;BME280;48555;50.952;-0.120;2023-03-04T05:29:52;102397.59;;;5.83;68.02
61394;BME280;48555;50.952;-0.120;2023-03-04T05:32:19;102414.34;;;6.06;67.54
61394;BME280;48555;50.952;-0.120;2023-03-04T05:34:45;102418.81;;;6.33;66.98
61394;BME280;48555;50.952;-0.120;2023-03-04T05:37:11;102421.06;;;6.46;66.64
61394;BME280;48555;50.952;-0.120;2023-03-04T05:39:36;102427.84;;;6.51;66.59
61394;BME280;48555;50.952;-0.120;2023-03-04T05:42:02;102422.47;;;6.59;66.03
61394;BME280;48555;50.952;-0.120;2023-03-04T05:44:27;102419.66;;;6.34;66.93
61394;BME280;48555;50.952;-0.120;2023-03-04T05:46:52;102420.31;;;6.42;66.74
61394;BME280;48555;50.952;-0.120;2023-03-04T05:49:18;102421.84;;;6.18;67.22
61394;BME280;48555;50.952;-0.120;2023-03-04T05:51:43;102424.38;;;6.20;67.22
61394;BME280;48555;50.952;-0.120;2023-03-04T05:54:09;102415.94;;;6.44;66.64
61394;BME280;48555;50.952;-0.120;2023-03-04T05:56:34;102426.84;;;6.57;66.09
61394;BME280;48555;50.952;-0.120;2023-03-04T05:59:00;102421.00;;;6.49;66.47
61394;BME280;48555;50.952;-0.120;2023-03-04T06:01:25;102426.88;;;6.55;66.16
61394;BME280;48555;50.952;-0.120;2023-03-04T06:03:50;102419.41;;;6.43;66.73
61394;BME280;48555;50.952;-0.120;2023-03-04T06:06:16;102426.75;;;6.60;66.28
61394;BME280;48555;50.952;-0.120;2023-03-04T06:08:41;102430.25;;;6.59;66.31
61394;BME280;48555;50.952;-0.120;2023-03-04T06:11:07;102429.91;;;6.71;65.74
61394;BME280;48555;50.952;-0.120;2023-03-04T06:13:33;102422.97;;;6.70;65.83
61394;BME280;48555;50.952;-0.120;2023-03-04T06:15:59;102418.50;;;6.75;65.57
61394;BME280;48555;50.952;-0.120;2023-03-04T06:18:26;102429.94;;;6.70;65.84
61394;BME280;48555;50.952;-0.120;2023-03-04T06:20:57;102420.81;;;6.55;65.70
61394;BME280;48555;50.952;-0.120;2023-03-04T06:23:23;102419.97;;;6.54;65.71
61394;BME280;48555;50.952;-0.120;2023-03-04T06:25:56;102425.28;;;6.50;66.01
61394;BME280;48555;50.952;-0.120;2023-03-04T06:28:22;102427.47;;;6.65;65.53
61394;BME280;48555;50.952;-0.120;2023-03-04T06:30:47;102425.75;;;6.64;65.34
61394;BME280;48555;50.952;-0.120;2023-03-04T06:33:13;102426.47;;;6.38;66.01
61394;BME280;48555;50.952;-0.120;2023-03-04T06:35:38;102429.97;;;6.37;66.20
61394;BME280;48555;50.952;-0.120;2023-03-04T06:38:04;102423.78;;;6.41;66.11
61394;BME280;48555;50.952;-0.120;2023-03-04T06:40:29;102419.94;;;6.23;66.62
61394;BME280;48555;50.952;-0.120;2023-03-04T06:42:54;102424.53;;;6.46;66.01
61394;BME280;48555;50.952;-0.120;2023-03-04T06:45:20;102421.56;;;6.58;65.71
61394;BME280;48555;50.952;-0.120;2023-03-04T06:47:45;102431.00;;;6.63;65.60
61394;BME280;48555;50.952;-0.120;2023-03-04T06:50:11;102434.63;;;6.57;65.88
61394;BME280;48555;50.952;-0.120;2023-03-04T06:52:38;102432.16;;;6.52;66.10
61394;BME280;48555;50.952;-0.120;2023-03-04T06:55:04;102443.13;;;6.31;66.73
61394;BME280;48555;50.952;-0.120;2023-03-04T06:57:29;102427.47;;;6.34;66.41
61394;BME280;48555;50.952;-0.120;2023-03-04T06:59:55;102447.72;;;6.54;66.09
61394;BME280;48555;50.952;-0.120;2023-03-04T07:02:20;102441.75;;;6.50;66.27
61394;BME280;48555;50.952;-0.120;2023-03-04T07:04:46;102450.78;;;6.68;65.95
61394;BME280;48555;50.952;-0.120;2023-03-04T07:07:11;102448.78;;;6.76;65.69
61394;BME280;48555;50.952;-0.120;2023-03-04T07:09:37;102447.06;;;6.77;65.27
61394;BME280;48555;50.952;-0.120;2023-03-04T07:12:03;102449.16;;;6.64;66.22
61394;BME280;48555;50.952;-0.120;2023-03-04T07:14:28;102451.41;;;6.76;65.64
61394;BME280;48555;50.952;-0.120;2023-03-04T07:16:54;102456.09;;;6.32;67.11
61394;BME280;48555;50.952;-0.120;2023-03-04T07:19:19;102436.69;;;6.11;67.65
61394;BME280;48555;50.952;-0.120;2023-03-04T07:21:45;102462.13;;;6.33;67.04
61394;BME280;48555;50.952;-0.120;2023-03-04T07:24:11;102460.16;;;6.41;66.59
61394;BME280;48555;50.952;-0.120;2023-03-04T07:26:36;102451.53;;;6.41;66.79
61394;BME280;48555;50.952;-0.120;2023-03-04T07:29:02;102449.75;;;6.08;66.90
61394;BME280;48555;50.952;-0.120;2023-03-04T07:31:29;102464.25;;;5.81;67.68
61394;BME280;48555;50.952;-0.120;2023-03-04T07:34:01;102456.19;;;5.95;67.46
61394;BME280;48555;50.952;-0.120;2023-03-04T07:36:27;102470.69;;;6.04;67.72
61394;BME280;48555;50.952;-0.120;2023-03-04T07:38:53;102467.78;;;6.14;67.67
61394;BME280;48555;50.952;-0.120;2023-03-04T07:41:23;102469.22;;;5.90;68.28
61394;BME280;48555;50.952;-0.120;2023-03-04T07:43:49;102467.91;;;6.10;68.10
61394;BME280;48555;50.952;-0.120;2023-03-04T07:46:15;102475.63;;;6.13;67.86
61394;BME280;48555;50.952;-0.120;2023-03-04T07:48:41;102475.56;;;6.14;67.93
61394;BME280;48555;50.952;-0.120;2023-03-04T07:51:12;102477.00;;;5.92;68.87
61394;BME280;48555;50.952;-0.120;2023-03-04T07:53:40;102477.16;;;6.22;68.50
61394;BME280;48555;50.952;-0.120;2023-03-04T07:56:07;102468.59;;;6.51;67.38
61394;BME280;48555;50.952;-0.120;2023-03-04T07:58:35;102480.00;;;6.45;67.31
61394;BME280;48555;50.952;-0.120;2023-03-04T08:01:00;102481.34;;;6.27;67.22
61394;BME280;48555;50.952;-0.120;2023-03-04T08:03:27;102475.22;;;6.30;66.92
61394;BME280;48555;50.952;-0.120;2023-03-04T08:05:53;102482.19;;;6.60;66.59
61394;BME280;48555;50.952;-0.120;2023-03-04T08:08:18;102474.00;;;6.74;66.02
61394;BME280;48555;50.952;-0.120;2023-03-04T08:10:44;102479.63;;;6.59;66.81
61394;BME280;48555;50.952;-0.120;2023-03-04T08:13:09;102479.28;;;6.71;66.35
61394;BME280;48555;50.952;-0.120;2023-03-04T08:15:39;102482.66;;;6.75;66.42
61394;BME280;48555;50.952;-0.120;2023-03-04T08:18:05;102481.50;;;6.85;66.14
61394;BME280;48555;50.952;-0.120;2023-03-04T08:20:30;102488.06;;;6.67;66.38
61394;BME280;48555;50.952;-0.120;2023-03-04T08:22:56;102485.13;;;6.79;66.28
61394;BME280;48555;50.952;-0.120;2023-03-04T08:25:21;102492.13;;;6.77;66.23
61394;BME280;48555;50.952;-0.120;2023-03-04T08:27:47;102485.84;;;6.85;66.26
61394;BME280;48555;50.952;-0.120;2023-03-04T08:30:12;102489.22;;;6.57;66.70
61394;BME280;48555;50.952;-0.120;2023-03-04T08:32:38;102494.13;;;6.68;66.67
61394;BME280;48555;50.952;-0.120;2023-03-04T08:35:03;102491.88;;;6.87;66.21
61394;BME280;48555;50.952;-0.120;2023-03-04T08:37:29;102494.81;;;6.74;66.18
61394;BME280;48555;50.952;-0.120;2023-03-04T08:39:54;102499.34;;;6.66;66.31
61394;BME280;48555;50.952;-0.120;2023-03-04T08:42:20;102491.31;;;6.75;66.28
61394;BME280;48555;50.952;-0.120;2023-03-04T08:44:45;102505.59;;;6.92;66.03
61394;BME280;48555;50.952;-0.120;2023-03-04T08:47:11;102504.81;;;6.88;66.26
61394;BME280;48555;50.952;-0.120;2023-03-04T08:49:36;102498.47;;;6.98;65.93
61394;BME280;48555;50.952;-0.120;2023-03-04T08:52:01;102503.31;;;7.11;65.51
61394;BME280;48555;50.952;-0.120;2023-03-04T08:54:27;102499.94;;;7.07;65.65
61394;BME280;48555;50.952;-0.120;2023-03-04T08:56:52;102502.09;;;6.93;65.74
61394;BME280;48555;50.952;-0.120;2023-03-04T08:59:17;102498.94;;;7.11;65.29
61394;BME280;48555;50.952;-0.120;2023-03-04T09:01:43;102490.59;;;7.00;64.97
61394;BME280;48555;50.952;-0.120;2023-03-04T09:04:08;102485.94;;;6.81;65.48
61394;BME280;48555;50.952;-0.120;2023-03-04T09:06:33;102488.91;;;6.99;65.34
61394;BME280;48555;50.952;-0.120;2023-03-04T09:08:59;102490.66;;;6.98;65.62
61394;BME280;48555;50.952;-0.120;2023-03-04T09:11:24;102475.31;;;6.58;66.20
61394;BME280;48555;50.952;-0.120;2023-03-04T09:13:49;102482.53;;;6.79;65.97
61394;BME280;48555;50.952;-0.120;2023-03-04T09:16:16;102472.81;;;6.86;65.90
61394;BME280;48555;50.952;-0.120;2023-03-04T09:18:42;102489.72;;;7.01;65.59
61394;BME280;48555;50.952;-0.120;2023-03-04T09:21:08;102483.38;;;6.80;65.61
61394;BME280;48555;50.952;-0.120;2023-03-04T09:23:34;102487.59;;;7.15;65.17
61394;BME280;48555;50.952;-0.120;2023-03-04T09:26:00;102480.31;;;7.26;65.11
61394;BME280;48555;50.952;-0.120;2023-03-04T09:28:25;102489.22;;;7.47;64.51
61394;BME280;48555;50.952;-0.120;2023-03-04T09:30:50;102480.41;;;7.51;64.04
61394;BME280;48555;50.952;-0.120;2023-03-04T09:33:16;102488.44;;;7.44;63.83
61394;BME280;48555;50.952;-0.120;2023-03-04T09:35:42;102480.38;;;7.23;64.04
61394;BME280;48555;50.952;-0.120;2023-03-04T09:38:09;102480.22;;;7.30;64.12
61394;BME280;48555;50.952;-0.120;2023-03-04T09:40:43;102486.00;;;7.39;64.66
61394;BME280;48555;50.952;-0.120;2023-03-04T09:43:22;102485.84;;;6.85;67.47
61394;BME280;48555;50.952;-0.120;2023-03-04T09:45:57;102493.06;;;6.75;68.08
61394;BME280;48555;50.952;-0.120;2023-03-04T09:48:27;102481.56;;;6.82;68.60
61394;BME280;48555;50.952;-0.120;2023-03-04T09:56:20;102485.09;;;7.40;67.85
61394;BME280;48555;50.952;-0.120;2023-03-04T09:59:14;102479.22;;;7.34;68.64
61394;BME280;48555;50.952;-0.120;2023-03-04T10:01:47;102481.69;;;7.38;68.63
61394;BME280;48555;50.952;-0.120;2023-03-04T10:06:57;102486.53;;;7.50;69.08
61394;BME280;48555;50.952;-0.120;2023-03-04T10:09:40;102484.69;;;7.53;69.49
61394;BME280;48555;50.952;-0.120;2023-03-04T10:12:17;102496.22;;;7.16;70.15
61394;BME280;48555;50.952;-0.120;2023-03-04T10:14:48;102495.13;;;7.23;70.84
61394;BME280;48555;50.952;-0.120;2023-03-04T10:17:18;102496.72;;;7.28;71.26
61394;BME280;48555;50.952;-0.120;2023-03-04T10:22:41;102495.97;;;7.25;72.66
61394;BME280;48555;50.952;-0.120;2023-03-04T10:30:40;102486.38;;;7.27;72.82
61394;BME280;48555;50.952;-0.120;2023-03-04T10:33:16;102493.13;;;7.33;72.30
61394;BME280;48555;50.952;-0.120;2023-03-04T10:35:49;102483.94;;;7.49;71.67
61394;BME280;48555;50.952;-0.120;2023-03-04T10:38:18;102485.03;;;7.70;71.04
61394;BME280;48555;50.952;-0.120;2023-03-04T10:40:44;102469.16;;;7.78;71.03
61394;BME280;48555;50.952;-0.120;2023-03-04T10:43:17;102461.16;;;7.84;70.63
61394;BME280;48555;50.952;-0.120;2023-03-04T10:45:44;102472.19;;;8.17;69.46
61394;BME280;48555;50.952;-0.120;2023-03-04T10:48:30;102461.16;;;8.35;67.90
61394;BME280;48555;50.952;-0.120;2023-03-04T10:53:42;102456.28;;;8.00;67.51
61394;BME280;48555;50.952;-0.120;2023-03-04T11:04:52;102454.59;;;7.72;68.74
61394;BME280;48555;50.952;-0.120;2023-03-04T11:07:19;102469.50;;;7.67;69.55
61394;BME280;48555;50.952;-0.120;2023-03-04T11:09:45;102461.72;;;7.39;69.75
61394;BME280;48555;50.952;-0.120;2023-03-04T11:12:13;102461.94;;;7.03;70.33
61394;BME280;48555;50.952;-0.120;2023-03-04T11:14:47;102458.31;;;7.37;70.30
61394;BME280;48555;50.952;-0.120;2023-03-04T11:19:46;102462.47;;;7.42;68.99
61394;BME280;48555;50.952;-0.120;2023-03-04T11:22:15;102462.84;;;7.58;68.58
61394;BME280;48555;50.952;-0.120;2023-03-04T11:24:41;102458.13;;;7.69;68.47
61394;BME280;48555;50.952;-0.120;2023-03-04T11:27:14;102458.84;;;7.74;67.72
61394;BME280;48555;50.952;-0.120;2023-03-04T11:29:50;102445.06;;;8.23;66.65
61394;BME280;48555;50.952;-0.120;2023-03-04T11:32:20;102432.13;;;8.21;65.65
61394;BME280;48555;50.952;-0.120;2023-03-04T11:37:30;102425.19;;;7.95;64.57
61394;BME280;48555;50.952;-0.120;2023-03-04T11:40:03;102429.13;;;8.07;64.18
61394;BME280;48555;50.952;-0.120;2023-03-04T11:42:46;102425.34;;;7.90;64.98
61394;BME280;48555;50.952;-0.120;2023-03-04T11:46:00;102423.13;;;8.30;63.98
61394;BME280;48555;50.952;-0.120;2023-03-04T11:50:53;102423.97;;;8.55;62.03
61394;BME280;48555;50.952;-0.120;2023-03-04T11:53:37;102429.16;;;8.05;62.99
61394;BME280;48555;50.952;-0.120;2023-03-04T11:56:08;102427.22;;;8.12;63.26
61394;BME280;48555;50.952;-0.120;2023-03-04T12:02:09;102416.56;;;7.93;63.52
61394;BME280;48555;50.952;-0.120;2023-03-04T12:18:55;102398.13;;;8.49;60.36
61394;BME280;48555;50.952;-0.120;2023-03-04T12:31:56;102393.34;;;8.12;61.75
61394;BME280;48555;50.952;-0.120;2023-03-04T12:37:20;102390.69;;;8.13;62.27
61394;BME280;48555;50.952;-0.120;2023-03-04T12:42:47;102387.72;;;7.72;64.69
61394;BME280;48555;50.952;-0.120;2023-03-04T12:45:15;102379.13;;;7.70;64.87
61394;BME280;48555;50.952;-0.120;2023-03-04T12:56:31;102360.91;;;7.95;64.04
61394;BME280;48555;50.952;-0.120;2023-03-04T12:59:02;102356.34;;;8.26;63.33
61394;BME280;48555;50.952;-0.120;2023-03-04T13:01:45;102353.03;;;8.47;62.93
61394;BME280;48555;50.952;-0.120;2023-03-04T13:04:49;102349.72;;;8.17;63.14
61394;BME280;48555;50.952;-0.120;2023-03-04T13:07:40;102352.56;;;8.34;63.07
61394;BME280;48555;50.952;-0.120;2023-03-04T13:10:12;102348.38;;;8.30;62.94
61394;BME280;48555;50.952;-0.120;2023-03-04T13:12:53;102334.19;;;8.39;62.50
61394;BME280;48555;50.952;-0.120;2023-03-04T13:17:51;102334.34;;;8.58;62.50
61394;BME280;48555;50.952;-0.120;2023-03-04T13:25:47;102324.59;;;8.63;63.03
61394;BME280;48555;50.952;-0.120;2023-03-04T13:41:21;102312.91;;;8.26;62.78
61394;BME280;48555;50.952;-0.120;2023-03-04T13:43:54;102317.16;;;8.29;63.12
61394;BME280;48555;50.952;-0.120;2023-03-04T13:51:25;102306.50;;;8.11;63.10
61394;BME280;48555;50.952;-0.120;2023-03-04T13:56:25;102299.34;;;8.18;62.86
61394;BME280;48555;50.952;-0.120;2023-03-04T14:01:35;102307.50;;;8.78;61.45
61394;BME280;48555;50.952;-0.120;2023-03-04T14:04:19;102296.59;;;8.90;60.79
61394;BME280;48555;50.952;-0.120;2023-03-04T14:06:47;102297.72;;;9.05;60.29
61394;BME280;48555;50.952;-0.120;2023-03-04T14:09:21;102286.50;;;9.03;59.65
61394;BME280;48555;50.952;-0.120;2023-03-04T14:11:48;102281.81;;;9.11;59.82
61394;BME280;48555;50.952;-0.120;2023-03-04T14:14:20;102288.50;;;9.18;59.38
61394;BME280;48555;50.952;-0.120;2023-03-04T14:16:49;102286.28;;;9.09;58.99
61394;BME280;48555;50.952;-0.120;2023-03-04T14:19:28;102286.28;;;9.09;58.97
61394;BME280;48555;50.952;-0.120;2023-03-04T14:21:55;102288.16;;;9.05;58.94
61394;BME280;48555;50.952;-0.120;2023-03-04T14:24:22;102287.28;;;8.61;59.55
61394;BME280;48555;50.952;-0.120;2023-03-04T14:26:48;102283.03;;;8.58;60.02
61394;BME280;48555;50.952;-0.120;2023-03-04T14:29:26;102278.22;;;8.71;59.81
61394;BME280;48555;50.952;-0.120;2023-03-04T14:31:52;102270.38;;;8.49;60.39
61394;BME280;48555;50.952;-0.120;2023-03-04T14:34:24;102277.84;;;8.58;60.42
61394;BME280;48555;50.952;-0.120;2023-03-04T14:36:51;102271.91;;;8.77;60.17
61394;BME280;48555;50.952;-0.120;2023-03-04T14:39:17;102267.84;;;8.92;59.42
61394;BME280;48555;50.952;-0.120;2023-03-04T14:41:46;102275.59;;;8.93;58.99
61394;BME280;48555;50.952;-0.120;2023-03-04T14:44:36;102272.50;;;8.83;58.18
61394;BME280;48555;50.952;-0.120;2023-03-04T14:47:29;102274.16;;;8.86;58.12